createdAt,value
2022-12-29T00:00:11.294Z,84.66
2022-12-29T00:02:38.059Z,84.56
2022-12-29T00:05:05.603Z,84.59
2022-12-29T00:07:32.172Z,84.64
2022-12-29T00:09:58.835Z,84.35
2022-12-29T00:12:25.461Z,83.85
2022-12-29T00:14:53.482Z,83.65
2022-12-29T00:17:20.057Z,84.00
2022-12-29T00:19:46.812Z,84.09
2022-12-29T00:22:14.930Z,84.02
2022-12-29T00:24:41.643Z,83.86
2022-12-29T00:27:13.308Z,83.89
2022-12-29T00:29:40.787Z,83.92
2022-12-29T00:32:10.720Z,84.16
2022-12-29T00:34:37.603Z,84.45
2022-12-29T00:37:04.303Z,84.40
2022-12-29T00:39:30.887Z,85.17
2022-12-29T00:41:57.563Z,84.94
2022-12-29T00:44:24.918Z,84.99
2022-12-29T00:46:51.661Z,85.29
2022-12-29T00:49:19.704Z,84.96
2022-12-29T00:51:46.442Z,85.23
2022-12-29T00:54:13.894Z,84.75
2022-12-29T00:56:40.787Z,85.32
2022-12-29T00:59:10.125Z,85.52
2022-12-29T01:01:39.014Z,85.40
2022-12-29T01:04:06.637Z,85.62
2022-12-29T01:06:36.656Z,85.41
2022-12-29T01:09:04.328Z,85.96
2022-12-29T01:11:30.965Z,85.68
2022-12-29T01:13:57.502Z,84.93
2022-12-29T01:16:24.128Z,85.16
2022-12-29T01:18:50.716Z,85.34
2022-12-29T01:21:17.366Z,85.63
2022-12-29T01:23:46.049Z,85.46
2022-12-29T01:26:14.055Z,85.62
2022-12-29T01:28:41.071Z,85.92
2022-12-29T01:31:08.075Z,85.36
2022-12-29T01:33:34.921Z,85.85
2022-12-29T01:36:01.814Z,85.63
2022-12-29T01:38:28.443Z,86.27
2022-12-29T01:40:56.444Z,86.04
2022-12-29T01:43:43.641Z,86.16
2022-12-29T01:46:19.548Z,86.23
2022-12-29T01:48:47.861Z,86.68
2022-12-29T01:51:15.441Z,86.52
2022-12-29T01:53:43.724Z,86.92
2022-12-29T01:56:15.574Z,86.87
2022-12-29T01:58:47.176Z,86.60
2022-12-29T02:01:14.604Z,86.46
2022-12-29T02:03:41.689Z,86.23
2022-12-29T02:06:13.933Z,86.30
2022-12-29T02:08:41.611Z,86.04
2022-12-29T02:11:08.825Z,85.86
2022-12-29T02:13:36.787Z,85.54
2022-12-29T02:16:15.613Z,85.46
2022-12-29T02:18:55.664Z,85.17
2022-12-29T02:21:47.017Z,85.35
2022-12-29T02:24:46.284Z,84.16
2022-12-29T02:27:45.135Z,84.26
2022-12-29T02:30:38.836Z,84.24
2022-12-29T02:33:14.649Z,83.71
2022-12-29T02:35:49.942Z,83.79
2022-12-29T02:38:26.109Z,83.51
2022-12-29T02:40:59.134Z,83.20
2022-12-29T02:43:32.055Z,83.53
2022-12-29T02:46:05.753Z,83.02
2022-12-29T02:48:39.603Z,82.83
2022-12-29T02:51:14.507Z,82.69
2022-12-29T02:53:41.562Z,82.63
2022-12-29T02:56:08.327Z,82.47
2022-12-29T02:58:35.059Z,82.14
2022-12-29T03:01:22.289Z,82.02
2022-12-29T03:04:00.066Z,81.63
2022-12-29T03:06:36.412Z,82.28
2022-12-29T03:09:18.359Z,81.74
2022-12-29T03:11:55.105Z,82.03
2022-12-29T03:14:29.922Z,81.60
2022-12-29T03:17:03.076Z,81.64
2022-12-29T03:19:34.000Z,81.48
2022-12-29T03:22:04.876Z,81.86
2022-12-29T03:24:37.114Z,81.54
2022-12-29T03:27:07.185Z,81.46
2022-12-29T03:29:40.350Z,81.05
2022-12-29T03:32:10.479Z,81.29
2022-12-29T03:34:39.218Z,81.31
2022-12-29T03:37:11.308Z,81.28
2022-12-29T03:39:38.402Z,81.59
2022-12-29T03:42:10.498Z,81.19
2022-12-29T03:44:39.281Z,81.24
2022-12-29T03:47:08.625Z,81.00
2022-12-29T03:49:35.374Z,80.83
2022-12-29T03:52:01.971Z,81.27
2022-12-29T03:54:28.739Z,81.08
2022-12-29T03:56:55.422Z,80.69
2022-12-29T03:59:22.194Z,80.90
2022-12-29T04:01:48.926Z,81.02
2022-12-29T04:04:17.141Z,81.26
2022-12-29T04:06:44.416Z,81.02
2022-12-29T04:09:12.228Z,80.94
2022-12-29T04:11:38.815Z,80.91
2022-12-29T04:14:05.446Z,80.60
2022-12-29T04:16:32.079Z,80.58
2022-12-29T04:18:58.667Z,80.36
2022-12-29T04:21:26.685Z,80.54
2022-12-29T04:23:53.310Z,80.90
2022-12-29T04:26:19.906Z,80.30
2022-12-29T04:28:46.484Z,79.95
2022-12-29T04:31:13.214Z,80.26
2022-12-29T04:33:39.898Z,80.49
2022-12-29T04:36:06.903Z,79.75
2022-12-29T04:38:35.651Z,80.23
2022-12-29T04:41:03.055Z,79.85
2022-12-29T04:43:29.752Z,79.90
2022-12-29T04:45:56.686Z,79.53
2022-12-29T04:48:23.872Z,79.85
2022-12-29T04:50:50.929Z,80.12
2022-12-29T04:53:18.447Z,80.06
2022-12-29T04:55:49.958Z,80.19
2022-12-29T04:58:22.403Z,79.50
2022-12-29T05:00:49.552Z,79.96
2022-12-29T05:03:16.265Z,79.67
2022-12-29T05:05:44.996Z,79.96
2022-12-29T05:08:11.717Z,80.19
2022-12-29T05:10:38.368Z,80.00
2022-12-29T05:13:06.490Z,80.25
2022-12-29T05:15:34.101Z,80.33
2022-12-29T05:18:00.705Z,80.22
2022-12-29T05:20:27.300Z,80.42
2022-12-29T05:22:53.998Z,80.13
2022-12-29T05:25:20.615Z,80.16
2022-12-29T05:27:47.291Z,80.03
2022-12-29T05:30:15.434Z,80.35
2022-12-29T05:32:42.051Z,80.44
2022-12-29T05:35:09.657Z,80.35
2022-12-29T05:37:36.404Z,80.31
2022-12-29T05:40:03.526Z,80.49
2022-12-29T05:42:30.081Z,80.06
2022-12-29T05:44:56.734Z,80.25
2022-12-29T05:47:24.834Z,80.87
2022-12-29T05:49:51.471Z,80.27
2022-12-29T05:52:18.090Z,80.71
2022-12-29T05:54:45.185Z,80.91
2022-12-29T05:57:11.833Z,80.75
2022-12-29T05:59:38.433Z,80.65
2022-12-29T06:02:05.381Z,80.39
2022-12-29T06:04:33.586Z,80.42
2022-12-29T06:07:00.233Z,80.31
2022-12-29T06:09:26.824Z,80.56
2022-12-29T06:11:53.891Z,80.33
2022-12-29T06:14:20.560Z,80.44
2022-12-29T06:16:47.215Z,80.57
2022-12-29T06:19:13.885Z,80.28
2022-12-29T06:21:42.103Z,80.47
2022-12-29T06:24:08.842Z,80.72
2022-12-29T06:26:35.526Z,80.64
2022-12-29T06:29:02.112Z,80.49
2022-12-29T06:31:28.869Z,80.12
2022-12-29T06:33:55.507Z,80.08
2022-12-29T06:36:22.122Z,80.34
2022-12-29T06:38:50.224Z,80.23
2022-12-29T06:41:17.359Z,80.04
2022-12-29T06:43:43.996Z,79.56
2022-12-29T06:46:10.676Z,79.87
2022-12-29T06:48:37.309Z,79.69
2022-12-29T06:51:04.090Z,79.99
2022-12-29T06:53:30.772Z,79.64
2022-12-29T06:55:58.773Z,79.82
2022-12-29T06:58:25.425Z,79.67
2022-12-29T07:00:52.035Z,79.99
2022-12-29T07:03:18.757Z,79.63
2022-12-29T07:05:45.476Z,80.04
2022-12-29T07:08:12.130Z,80.13
2022-12-29T07:10:40.816Z,79.81
2022-12-29T07:13:08.862Z,80.03
2022-12-29T07:15:35.691Z,80.19
2022-12-29T07:18:02.288Z,80.19
2022-12-29T07:20:28.890Z,80.54
2022-12-29T07:22:55.690Z,80.42
2022-12-29T07:25:22.526Z,80.42
2022-12-29T07:27:49.215Z,80.48
2022-12-29T07:30:17.612Z,80.61
2022-12-29T07:32:44.235Z,80.69
2022-12-29T07:35:10.865Z,81.19
2022-12-29T07:37:37.494Z,81.13
2022-12-29T07:40:04.844Z,81.28
2022-12-29T07:42:32.041Z,81.66
2022-12-29T07:44:58.687Z,81.54
2022-12-29T07:47:26.740Z,81.40
2022-12-29T07:49:53.375Z,81.32
2022-12-29T07:52:19.966Z,81.67
2022-12-29T07:54:46.588Z,81.38
2022-12-29T07:57:13.193Z,81.55
2022-12-29T07:59:39.863Z,81.67
2022-12-29T08:02:06.800Z,81.25
2022-12-29T08:04:34.822Z,81.37
2022-12-29T08:07:01.428Z,81.72
2022-12-29T08:09:27.995Z,81.25
2022-12-29T08:11:55.152Z,81.33
2022-12-29T08:14:21.800Z,81.35
2022-12-29T08:16:48.642Z,81.35
2022-12-29T08:19:15.491Z,81.02
2022-12-29T08:21:43.632Z,81.01
2022-12-29T08:24:10.478Z,80.92
2022-12-29T08:26:37.140Z,81.10
2022-12-29T08:29:03.869Z,81.12
2022-12-29T08:31:30.920Z,80.71
2022-12-29T08:33:57.565Z,80.62
2022-12-29T08:36:24.157Z,80.54
2022-12-29T08:38:52.167Z,80.37
2022-12-29T08:41:18.805Z,80.66
2022-12-29T08:43:47.113Z,80.73
2022-12-29T08:46:14.043Z,80.74
2022-12-29T08:48:40.894Z,81.22
2022-12-29T08:51:07.691Z,80.79
2022-12-29T08:53:34.503Z,80.50
2022-12-29T08:56:05.479Z,80.56
2022-12-29T08:58:32.957Z,80.13
2022-12-29T09:00:59.948Z,79.57
2022-12-29T09:04:03.842Z,79.54
2022-12-29T09:06:15.176Z,79.58
2022-12-29T09:08:41.762Z,79.38
2022-12-29T09:11:12.495Z,79.35
2022-12-29T09:13:39.458Z,78.76
2022-12-29T09:16:06.654Z,78.86
2022-12-29T09:18:33.308Z,79.23
2022-12-29T09:21:01.686Z,78.70
2022-12-29T09:23:28.934Z,78.98
2022-12-29T09:25:55.920Z,78.62
2022-12-29T09:28:24.304Z,78.40
2022-12-29T09:30:51.679Z,78.44
2022-12-29T09:33:18.893Z,78.40
2022-12-29T09:35:50.749Z,77.68
2022-12-29T09:38:17.323Z,77.50
2022-12-29T09:40:46.370Z,77.23
2022-12-29T09:43:27.012Z,76.70
2022-12-29T09:46:04.969Z,76.26
2022-12-29T09:48:35.658Z,76.19
2022-12-29T09:51:09.754Z,76.08
2022-12-29T09:53:38.974Z,76.58
2022-12-29T09:56:11.431Z,76.49
2022-12-29T09:58:43.504Z,76.14
2022-12-29T10:01:24.910Z,75.90
2022-12-29T10:03:54.057Z,75.91
2022-12-29T10:06:25.189Z,75.26
2022-12-29T10:09:02.022Z,75.05
2022-12-29T10:11:40.486Z,74.94
2022-12-29T10:14:26.955Z,74.71
2022-12-29T10:17:02.613Z,74.77
2022-12-29T10:20:02.686Z,74.83
2022-12-29T10:22:39.930Z,74.56
2022-12-29T10:25:15.916Z,74.33
2022-12-29T10:27:44.497Z,74.22
2022-12-29T10:30:14.230Z,74.17
2022-12-29T10:32:46.511Z,73.95
2022-12-29T10:35:18.495Z,73.82
2022-12-29T10:37:50.349Z,74.05
2022-12-29T10:40:24.537Z,74.32
2022-12-29T10:42:54.231Z,73.96
2022-12-29T10:45:24.185Z,73.80
2022-12-29T10:48:01.017Z,72.99
2022-12-29T10:50:28.356Z,72.81
2022-12-29T10:52:57.804Z,73.25
2022-12-29T10:55:29.440Z,72.93
2022-12-29T10:58:00.543Z,72.99
2022-12-29T11:00:27.203Z,72.90
2022-12-29T11:03:35.732Z,73.25
2022-12-29T11:06:09.852Z,73.71
2022-12-29T11:08:39.403Z,73.21
2022-12-29T11:11:07.661Z,72.52
2022-12-29T11:13:39.291Z,73.26
2022-12-29T11:16:06.685Z,73.26
2022-12-29T11:18:38.318Z,73.11
2022-12-29T11:21:07.070Z,73.20
2022-12-29T11:23:39.127Z,73.21
2022-12-29T11:26:08.846Z,73.31
2022-12-29T11:28:35.772Z,74.58
2022-12-29T11:31:04.292Z,74.41
2022-12-29T11:33:32.203Z,74.82
2022-12-29T11:36:04.850Z,74.80
2022-12-29T11:38:36.325Z,75.96
2022-12-29T11:41:03.863Z,75.54
2022-12-29T11:43:34.199Z,76.76
2022-12-29T11:46:02.039Z,77.20
2022-12-29T11:48:32.643Z,76.87
2022-12-29T11:51:01.161Z,77.46
2022-12-29T11:53:33.680Z,77.12
2022-12-29T11:56:03.468Z,77.24
2022-12-29T11:58:30.791Z,76.96
2022-12-29T12:01:01.577Z,76.95
2022-12-29T12:03:31.415Z,77.39
2022-12-29T12:06:02.533Z,77.74
2022-12-29T12:08:35.236Z,78.07
2022-12-29T12:11:07.785Z,78.33
2022-12-29T12:13:39.256Z,78.45
2022-12-29T12:16:10.381Z,79.15
2022-12-29T12:18:43.167Z,80.55
2022-12-29T12:21:19.407Z,80.62
2022-12-29T12:24:01.378Z,81.25
2022-12-29T12:26:35.722Z,80.79
2022-12-29T12:29:09.290Z,80.95
2022-12-29T12:31:46.051Z,80.63
2022-12-29T12:34:20.002Z,80.31
2022-12-29T12:37:01.577Z,80.18
2022-12-29T12:39:38.687Z,79.82
2022-12-29T12:42:22.929Z,79.67
2022-12-29T12:45:04.600Z,79.33
2022-12-29T12:47:46.132Z,78.81
2022-12-29T12:50:42.515Z,78.41
2022-12-29T12:53:33.742Z,78.75
2022-12-29T12:56:17.981Z,77.99
2022-12-29T12:58:52.244Z,77.40
2022-12-29T13:01:33.466Z,77.17
2022-12-29T13:04:33.019Z,77.43
2022-12-29T13:07:10.842Z,76.86
2022-12-29T13:09:59.340Z,77.15
2022-12-29T13:12:37.241Z,76.88
2022-12-29T13:15:29.548Z,77.13
2022-12-29T13:18:04.876Z,77.49
2022-12-29T13:20:38.299Z,78.03
2022-12-29T13:23:09.150Z,78.00
2022-12-29T13:25:47.225Z,78.54
2022-12-29T13:28:23.460Z,78.96
2022-12-29T13:30:58.002Z,78.82
2022-12-29T13:33:35.084Z,79.02
2022-12-29T13:36:06.091Z,79.08
2022-12-29T13:38:39.207Z,79.31
2022-12-29T13:41:10.290Z,79.31
2022-12-29T13:43:40.233Z,79.34
2022-12-29T13:46:10.927Z,79.19
2022-12-29T13:48:44.301Z,79.05
2022-12-29T13:51:12.550Z,79.35
2022-12-29T13:53:56.209Z,79.11
2022-12-29T13:56:32.506Z,79.33
2022-12-29T13:59:06.615Z,79.60
2022-12-29T14:01:38.612Z,79.45
2022-12-29T14:04:13.109Z,79.53
2022-12-29T14:06:40.010Z,79.59
2022-12-29T14:09:30.404Z,80.11
2022-12-29T14:12:20.737Z,80.27
2022-12-29T14:14:47.403Z,80.61
2022-12-29T14:17:20.510Z,80.85
2022-12-29T14:19:52.384Z,81.14
2022-12-29T14:22:32.409Z,81.24
2022-12-29T14:24:59.873Z,81.65
2022-12-29T14:27:54.150Z,81.70
2022-12-29T14:30:52.323Z,82.24
2022-12-29T14:33:19.719Z,82.02
2022-12-29T14:35:51.703Z,82.38
2022-12-29T14:38:24.597Z,82.35
2022-12-29T14:40:52.399Z,82.76
2022-12-29T14:43:26.061Z,82.44
2022-12-29T14:46:00.170Z,82.51
2022-12-29T14:48:40.127Z,82.75
2022-12-29T14:51:22.038Z,82.11
2022-12-29T14:53:51.164Z,82.38
2022-12-29T14:56:19.907Z,83.42
2022-12-29T14:58:52.593Z,84.12
2022-12-29T15:01:25.273Z,84.30
2022-12-29T15:03:57.311Z,83.47
2022-12-29T15:06:26.140Z,83.61
2022-12-29T15:08:57.736Z,83.97
2022-12-29T15:11:32.375Z,84.52
2022-12-29T15:14:00.424Z,84.79
2022-12-29T15:16:31.490Z,84.94
2022-12-29T15:18:58.784Z,85.22
2022-12-29T15:21:29.997Z,85.23
2022-12-29T15:23:57.055Z,85.22
2022-12-29T15:26:23.877Z,85.26
2022-12-29T15:28:52.640Z,85.30
2022-12-29T15:31:28.059Z,85.07
2022-12-29T15:34:11.202Z,85.22
2022-12-29T15:36:39.893Z,85.09
2022-12-29T15:39:19.419Z,84.92
2022-12-29T15:41:54.659Z,85.11
2022-12-29T15:44:26.132Z,85.10
2022-12-29T15:46:54.297Z,85.32
2022-12-29T15:49:25.071Z,85.37
2022-12-29T15:51:55.504Z,85.36
2022-12-29T15:54:24.032Z,85.56
2022-12-29T15:56:51.165Z,85.83
2022-12-29T15:59:26.565Z,85.56
2022-12-29T16:01:55.650Z,85.57
2022-12-29T16:04:22.725Z,85.42
2022-12-29T16:06:56.627Z,85.53
2022-12-29T16:09:31.167Z,85.69
2022-12-29T16:12:00.725Z,85.58
2022-12-29T16:14:33.305Z,85.45
2022-12-29T16:17:03.821Z,85.17
2022-12-29T16:19:34.631Z,84.68
2022-12-29T16:22:03.177Z,84.64
2022-12-29T16:24:33.467Z,83.61
2022-12-29T16:27:07.416Z,83.46
2022-12-29T16:29:35.031Z,83.29
2022-12-29T16:32:03.732Z,82.45
2022-12-29T16:34:32.970Z,81.65
2022-12-29T16:37:01.493Z,81.85
2022-12-29T16:39:32.541Z,81.37
2022-12-29T16:41:59.462Z,81.17
2022-12-29T16:44:27.938Z,80.68
2022-12-29T16:47:05.927Z,80.07
2022-12-29T16:49:34.966Z,80.08
2022-12-29T16:52:02.338Z,79.99
2022-12-29T16:54:35.243Z,79.26
2022-12-29T16:57:03.460Z,79.02
2022-12-29T16:59:35.864Z,78.15
2022-12-29T17:02:13.187Z,78.71
2022-12-29T17:04:39.921Z,78.65
2022-12-29T17:07:16.266Z,78.60
2022-12-29T17:09:42.931Z,78.98
2022-12-29T17:12:14.576Z,77.74
2022-12-29T17:14:44.424Z,78.32
2022-12-29T17:17:16.395Z,78.15
2022-12-29T17:19:47.753Z,77.68
2022-12-29T17:22:17.869Z,77.28
2022-12-29T17:24:44.514Z,77.05
2022-12-29T17:27:21.194Z,77.25
2022-12-29T17:29:48.225Z,77.28
2022-12-29T17:32:16.264Z,77.67
2022-12-29T17:34:42.895Z,76.72
2022-12-29T17:37:27.216Z,76.79
2022-12-29T17:39:53.815Z,77.21
2022-12-29T17:42:20.473Z,76.55
2022-12-29T17:44:47.423Z,76.75
2022-12-29T17:47:16.124Z,76.68
2022-12-29T17:49:42.812Z,76.64
2022-12-29T17:52:10.682Z,76.48
2022-12-29T17:54:45.964Z,76.30
2022-12-29T17:57:13.856Z,76.31
2022-12-29T17:59:40.449Z,76.49
2022-12-29T18:02:23.626Z,76.27
2022-12-29T18:04:50.432Z,76.89
2022-12-29T18:07:17.062Z,76.73
2022-12-29T18:09:43.650Z,76.36
2022-12-29T18:12:27.292Z,76.52
2022-12-29T18:14:55.014Z,76.61
2022-12-29T18:17:23.239Z,76.38
2022-12-29T18:19:49.891Z,76.54
2022-12-29T18:22:16.561Z,76.84
2022-12-29T18:24:43.168Z,76.95
2022-12-29T18:27:12.416Z,76.55
2022-12-29T18:29:39.286Z,76.73
2022-12-29T18:32:06.248Z,76.85
2022-12-29T18:34:34.253Z,76.84
2022-12-29T18:37:00.864Z,77.03
2022-12-29T18:39:29.858Z,76.55
2022-12-29T18:41:56.688Z,76.75
2022-12-29T18:44:23.487Z,77.28
2022-12-29T18:46:50.132Z,76.48
2022-12-29T18:49:16.874Z,76.59
2022-12-29T18:51:44.808Z,76.90
2022-12-29T18:54:22.609Z,76.81
2022-12-29T18:56:49.181Z,77.07
2022-12-29T18:59:15.753Z,76.96
2022-12-29T19:01:42.450Z,77.13
2022-12-29T19:04:12.206Z,77.33
2022-12-29T19:06:38.759Z,77.07
2022-12-29T19:09:06.748Z,76.82
2022-12-29T19:11:33.604Z,77.09
2022-12-29T19:14:00.348Z,77.28
2022-12-29T19:16:27.069Z,77.22
2022-12-29T19:19:08.518Z,77.19
2022-12-29T19:21:37.125Z,77.10
2022-12-29T19:24:04.287Z,77.57
2022-12-29T19:26:34.804Z,77.32
2022-12-29T19:29:01.818Z,77.40
2022-12-29T19:31:28.896Z,77.50
2022-12-29T19:33:55.861Z,78.06
2022-12-29T19:36:22.869Z,77.94
2022-12-29T19:38:49.559Z,78.22
2022-12-29T19:41:16.335Z,78.50
2022-12-29T19:43:44.481Z,78.25
2022-12-29T19:46:15.569Z,79.21
2022-12-29T19:48:42.434Z,78.66
2022-12-29T19:51:10.639Z,78.82
2022-12-29T19:53:37.640Z,79.37
2022-12-29T19:56:07.021Z,79.17
2022-12-29T19:58:34.920Z,79.45
2022-12-29T20:01:06.680Z,79.56
2022-12-29T20:03:33.863Z,79.82
2022-12-29T20:06:00.567Z,79.84
2022-12-29T20:08:27.151Z,79.79
2022-12-29T20:10:58.041Z,79.76
2022-12-29T20:13:24.609Z,79.62
2022-12-29T20:15:51.224Z,79.82
2022-12-29T20:18:22.471Z,80.14
2022-12-29T20:20:53.579Z,79.66
2022-12-29T20:23:20.652Z,79.59
2022-12-29T20:25:54.241Z,79.30
2022-12-29T20:28:21.144Z,79.85
2022-12-29T20:30:55.304Z,79.81
2022-12-29T20:33:23.598Z,79.86
2022-12-29T20:35:50.799Z,80.61
2022-12-29T20:38:17.639Z,80.56
2022-12-29T20:40:46.696Z,80.50
2022-12-29T20:43:14.680Z,80.31
2022-12-29T20:45:41.473Z,80.72
2022-12-29T20:48:08.163Z,80.77
2022-12-29T20:50:36.063Z,80.90
2022-12-29T20:53:02.726Z,80.87
2022-12-29T20:55:29.356Z,80.70
2022-12-29T21:00:43.482Z,81.04
2022-12-29T21:03:10.464Z,80.76
2022-12-29T21:05:38.874Z,80.88
2022-12-29T21:08:05.925Z,80.28
2022-12-29T21:10:32.490Z,80.64
2022-12-29T21:12:59.192Z,80.46
2022-12-29T21:15:25.762Z,80.37
2022-12-29T21:17:52.295Z,80.56
2022-12-29T21:20:18.882Z,80.27
2022-12-29T21:22:47.875Z,79.87
2022-12-29T21:25:14.968Z,80.00
2022-12-29T21:27:41.549Z,80.11
2022-12-29T21:30:09.595Z,80.13
2022-12-29T21:32:36.188Z,79.88
2022-12-29T21:35:03.001Z,79.77
2022-12-29T21:37:29.649Z,79.63
2022-12-29T21:39:57.770Z,79.81
2022-12-29T21:42:24.341Z,79.86
2022-12-29T21:44:51.036Z,79.59
2022-12-29T21:47:17.640Z,79.65
2022-12-29T21:49:44.318Z,79.65
2022-12-29T21:52:10.992Z,79.48
2022-12-29T21:54:37.618Z,79.69
2022-12-29T21:57:06.507Z,79.54
2022-12-29T21:59:33.334Z,79.70
2022-12-29T22:02:00.281Z,79.52
2022-12-29T22:04:27.190Z,79.33
2022-12-29T22:06:53.783Z,79.32
2022-12-29T22:09:20.362Z,79.29
2022-12-29T22:11:46.973Z,79.10
2022-12-29T22:14:14.954Z,78.51
2022-12-29T22:16:41.701Z,78.19
2022-12-29T22:19:08.319Z,78.13
2022-12-29T22:21:34.976Z,77.34
2022-12-29T22:24:01.655Z,77.64
2022-12-29T22:26:28.519Z,77.35
2022-12-29T22:28:55.352Z,77.69
2022-12-29T22:31:26.177Z,77.16
2022-12-29T22:33:54.399Z,76.44
2022-12-29T22:36:21.101Z,76.15
2022-12-29T22:38:47.740Z,75.98
2022-12-29T22:41:14.405Z,75.98
2022-12-29T22:43:40.999Z,75.93
2022-12-29T22:46:07.705Z,75.67
2022-12-29T22:48:36.407Z,75.40
2022-12-29T22:51:03.645Z,75.25
2022-12-29T22:53:30.341Z,75.06
2022-12-29T22:56:05.588Z,74.73
2022-12-29T22:58:32.400Z,75.65
2022-12-29T23:00:59.450Z,75.51
2022-12-29T23:03:26.361Z,75.27
2022-12-29T23:05:59.056Z,75.40
2022-12-29T23:08:25.904Z,74.01
2022-12-29T23:10:52.838Z,74.42
2022-12-29T23:13:19.995Z,74.29
2022-12-29T23:15:47.403Z,74.34
2022-12-29T23:18:14.148Z,75.14
2022-12-29T23:20:42.395Z,74.67
2022-12-29T23:23:10.937Z,74.34
2022-12-29T23:25:38.033Z,74.62
2022-12-29T23:28:05.725Z,74.52
2022-12-29T23:30:32.425Z,74.73
2022-12-29T23:32:59.223Z,74.55
2022-12-29T23:35:26.010Z,74.18
2022-12-29T23:37:52.647Z,74.08
2022-12-29T23:40:20.592Z,74.22
2022-12-29T23:42:47.231Z,74.02
2022-12-29T23:45:13.862Z,74.29
2022-12-29T23:47:40.464Z,74.19
2022-12-29T23:50:08.385Z,74.46
2022-12-29T23:52:35.001Z,74.12
2022-12-29T23:55:01.620Z,74.08
2022-12-29T23:57:30.021Z,74.41
2022-12-29T23:59:56.732Z,74.82
